Trabzon — 9HA2783 — position and weather

sailwx.info

Track history (hours):
 
Tides and Currents Weather Stations Pressure Air Temp Water Temp Dewpoint Dewpoint Depression Visibility Wind Speed Wind Dir Waves Ship Positions

Trabzon

Last reported at 2015-Feb-26 12:05 UTC. Time now 2015-Mar-03 08:55 UTC.
Position N 55°39' E 005°29'.

Length 229 m; draft 7.3 m.

Type: Cargo ship. MMSI: 215679000.

Date/timePositionNaut miles runAvg speedWind from/ knotsBaromVisibWave heightAir tempDewpointWater temp
2015-Feb-26 12:05N 55°39' E 005°29'712.7
2015-Feb-26 11:31N 55°32' E 005°28'1212.7
2015-Feb-26 10:33N 55°20' E 005°26'6613.0
2015-Feb-26 05:30N 54°16' E 004°57'1212.7
2015-Feb-26 04:33N 54°05' E 004°53'1412.7
2015-Feb-26 03:27N 53°51' E 004°52'1112.6
2015-Feb-26 02:33N 53°39' E 004°51'1312.6
2015-Feb-26 01:33N 53°28' E 004°43'1413.2
2015-Feb-26 00:29N 53°14' E 004°35'1213.4
2015-Feb-25 23:33N 53°04' E 004°25'1413.7
2015-Feb-25 22:33N 52°51' E 004°15'1413.9
2015-Feb-25 21:33N 52°38' E 004°06'1111.3
2015-Feb-25 20:34N 52°30' E 004°19'9 9.2
2015-Feb-25 19:34N 52°28' E 004°34'1 0.9
2015-Feb-25 18:33N 52°28' E 004°35'0 0.0
2015-Feb-25 17:33N 52°28' E 004°35'0 0.0
2015-Feb-25 16:30N 52°28' E 004°35'0 0.0
2015-Feb-25 15:33N 52°28' E 004°35'0 0.0
2015-Feb-25 14:33N 52°28' E 004°35'0 0.0
2015-Feb-25 13:33N 52°28' E 004°35'0 0.0
2015-Feb-25 12:33N 52°28' E 004°35'0 0.0
2015-Feb-25 11:33N 52°28' E 004°35'0 0.0
2015-Feb-25 10:33N 52°28' E 004°35'0 0.0
2015-Feb-25 09:33N 52°28' E 004°35'0 0.0
2015-Feb-25 08:30N 52°28' E 004°35'0 0.0
2015-Feb-25 07:30N 52°28' E 004°35'0 0.0
2015-Feb-25 06:30N 52°28' E 004°35'0 0.0
2015-Feb-25 05:27N 52°28' E 004°35'0 0.0
2015-Feb-25 04:33N 52°28' E 004°35'0 0.0
2015-Feb-25 03:33N 52°28' E 004°35'0 0.0
2015-Feb-25 02:33N 52°28' E 004°35'0 0.0
2015-Feb-25 01:30N 52°28' E 004°35'0 0.0
2015-Feb-25 00:24N 52°28' E 004°35'0 0.0
2015-Feb-24 23:33N 52°28' E 004°35'0 0.0
2015-Feb-24 22:33N 52°28' E 004°35'0 0.0
2015-Feb-24 21:30N 52°28' E 004°35'0 0.0
2015-Feb-24 20:30N 52°28' E 004°35'0 0.0
2015-Feb-24 19:33N 52°28' E 004°35'0 0.0
2015-Feb-24 18:33N 52°28' E 004°35'0 0.0
2015-Feb-24 17:27N 52°28' E 004°35'0 0.0
2015-Feb-24 16:27N 52°28' E 004°35'0 0.0
2015-Feb-24 15:27N 52°28' E 004°35'0 0.0
2015-Feb-24 14:27N 52°28' E 004°35'0 0.0
2015-Feb-24 13:21N 52°28' E 004°35'0 0.0
2015-Feb-24 12:30N 52°28' E 004°35'0 0.0
2015-Feb-24 11:33N 52°28' E 004°35'0 0.0
2015-Feb-24 10:33N 52°28' E 004°35'0 0.0
2015-Feb-24 09:30N 52°28' E 004°35'0 0.0
2015-Feb-24 08:33N 52°28' E 004°35'0 0.0
2015-Feb-24 07:27N 52°28' E 004°35'0 0.0
2015-Feb-24 06:27N 52°28' E 004°35'0 0.0
2015-Feb-24 05:27N 52°28' E 004°35'0 0.0
2015-Feb-24 04:33N 52°28' E 004°35'6 5.5
2015-Feb-24 03:33N 52°28' E 004°26'4 4.3
2015-Feb-24 02:33N 52°27' E 004°19'8 7.9
2015-Feb-24 01:33N 52°31' E 004°08'58 9.0
2015-Feb-23 19:08N 53°27' E 004°34'3310.8
2015-Feb-23 16:04N 53°59' E 004°48'5 9.3
2015-Feb-23 15:34N 54°03' E 004°52'1510.8
2015-Feb-23 14:10N 54°18' E 004°59'  
Track history (hours):
 
Tides and Currents Weather Stations Pressure Air Temp Water Temp Dewpoint Dewpoint Depression Visibility Wind Speed Wind Dir Waves Ship Positions

Trabzon

Last reported at 2015-Feb-26 12:05 UTC. Time now 2015-Mar-03 08:55 UTC.
Position N 55°39' E 005°29'.

Length 229 m; draft 7.3 m.

Type: Cargo ship. MMSI: 215679000.

Date/timePositionNaut miles runAvg speedWind from/ knotsBaromVisibWave heightAir tempDewpointWater temp
2015-Feb-26 12:05N 55°39' E 005°29'712.7
2015-Feb-26 11:31N 55°32' E 005°28'1212.7
2015-Feb-26 10:33N 55°20' E 005°26'6613.0
2015-Feb-26 05:30N 54°16' E 004°57'1212.7
2015-Feb-26 04:33N 54°05' E 004°53'1412.7
2015-Feb-26 03:27N 53°51' E 004°52'1112.6
2015-Feb-26 02:33N 53°39' E 004°51'1312.6
2015-Feb-26 01:33N 53°28' E 004°43'1413.2
2015-Feb-26 00:29N 53°14' E 004°35'1213.4
2015-Feb-25 23:33N 53°04' E 004°25'1413.7
2015-Feb-25 22:33N 52°51' E 004°15'1413.9
2015-Feb-25 21:33N 52°38' E 004°06'1111.3
2015-Feb-25 20:34N 52°30' E 004°19'9 9.2
2015-Feb-25 19:34N 52°28' E 004°34'1 0.9
2015-Feb-25 18:33N 52°28' E 004°35'0 0.0
2015-Feb-25 17:33N 52°28' E 004°35'0 0.0
2015-Feb-25 16:30N 52°28' E 004°35'0 0.0
2015-Feb-25 15:33N 52°28' E 004°35'0 0.0
2015-Feb-25 14:33N 52°28' E 004°35'0 0.0
2015-Feb-25 13:33N 52°28' E 004°35'0 0.0
2015-Feb-25 12:33N 52°28' E 004°35'0 0.0
2015-Feb-25 11:33N 52°28' E 004°35'0 0.0
2015-Feb-25 10:33N 52°28' E 004°35'0 0.0
2015-Feb-25 09:33N 52°28' E 004°35'0 0.0
2015-Feb-25 08:30N 52°28' E 004°35'0 0.0
2015-Feb-25 07:30N 52°28' E 004°35'0 0.0
2015-Feb-25 06:30N 52°28' E 004°35'0 0.0
2015-Feb-25 05:27N 52°28' E 004°35'0 0.0
2015-Feb-25 04:33N 52°28' E 004°35'0 0.0
2015-Feb-25 03:33N 52°28' E 004°35'0 0.0
2015-Feb-25 02:33N 52°28' E 004°35'0 0.0
2015-Feb-25 01:30N 52°28' E 004°35'0 0.0
2015-Feb-25 00:24N 52°28' E 004°35'0 0.0
2015-Feb-24 23:33N 52°28' E 004°35'0 0.0
2015-Feb-24 22:33N 52°28' E 004°35'0 0.0
2015-Feb-24 21:30N 52°28' E 004°35'0 0.0
2015-Feb-24 20:30N 52°28' E 004°35'0 0.0
2015-Feb-24 19:33N 52°28' E 004°35'0 0.0
2015-Feb-24 18:33N 52°28' E 004°35'0 0.0
2015-Feb-24 17:27N 52°28' E 004°35'0 0.0
2015-Feb-24 16:27N 52°28' E 004°35'0 0.0
2015-Feb-24 15:27N 52°28' E 004°35'0 0.0
2015-Feb-24 14:27N 52°28' E 004°35'0 0.0
2015-Feb-24 13:21N 52°28' E 004°35'0 0.0
2015-Feb-24 12:30N 52°28' E 004°35'0 0.0
2015-Feb-24 11:33N 52°28' E 004°35'0 0.0
2015-Feb-24 10:33N 52°28' E 004°35'0 0.0
2015-Feb-24 09:30N 52°28' E 004°35'0 0.0
2015-Feb-24 08:33N 52°28' E 004°35'0 0.0
2015-Feb-24 07:27N 52°28' E 004°35'0 0.0
2015-Feb-24 06:27N 52°28' E 004°35'0 0.0
2015-Feb-24 05:27N 52°28' E 004°35'0 0.0
2015-Feb-24 04:33N 52°28' E 004°35'6 5.5
2015-Feb-24 03:33N 52°28' E 004°26'4 4.3
2015-Feb-24 02:33N 52°27' E 004°19'8 7.9
2015-Feb-24 01:33N 52°31' E 004°08'58 9.0
2015-Feb-23 19:08N 53°27' E 004°34'3310.8
2015-Feb-23 16:04N 53°59' E 004°48'5 9.3
2015-Feb-23 15:34N 54°03' E 004°52'1510.8
2015-Feb-23 14:10N 54°18' E 004°59'  

Dump ship's entire track history